Time;durP1;ratioP1;P1;durP2;ratioP2;P2;SDS_P1;SDS_P2;PMS_P1;PMS_P2;Temp;Humidity;BMP_temperature;BMP_pressure;BME280_temperature;BME280_humidity;BME280_pressure;Samples;Min_cycle;Max_cycle;Signal;HPM_P1;HPM_P2
2023/05/19 00:00:14;;;;;;;;;;;;;;;11.48;60.39;99796.44;5007955;28;19931;-79
2023/05/19 00:02:39;;;;;;;;;;;;;;;11.51;60.57;99789.81;4999590;28;19948;-79
2023/05/19 00:05:05;;;;;;;;;;;;;;;11.44;60.25;99795.28;5006150;28;20377;-80
2023/05/19 00:07:31;;;;;;;;;;;;;;;11.38;60.64;99798.84;5002673;28;19952;-79
2023/05/19 00:09:56;;;;;;;;;;;;;;;11.28;60.40;99796.75;5004792;28;19918;-79
2023/05/19 00:12:22;;;;;;;;;;;;;;;11.37;60.41;99796.41;5003621;28;19933;-80
2023/05/19 00:14:47;;;;;;;;;;;;;;;11.31;60.69;99796.28;5021150;28;19930;-79
2023/05/19 00:17:13;;;;;;;;;;;;;;;11.27;60.50;99802.31;5002508;28;19926;-80
2023/05/19 00:19:39;;;;;;;;;;;;;;;11.22;60.33;99796.88;5022370;28;19921;-79
2023/05/19 00:22:05;;;;;;;;;;;;;;;11.16;61.04;99795.13;5008504;28;19921;-79
2023/05/19 00:24:30;;;;;;;;;;;;;;;11.16;60.81;99790.56;5019424;28;19933;-79
2023/05/19 00:26:55;;;;;;;;;;;;;;;11.09;61.40;99794.41;5011871;28;19917;-80
2023/05/19 00:29:21;;;;;;;;;;;;;;;11.02;61.43;99791.00;5022037;28;19933;-79
2023/05/19 00:31:46;;;;;;;;;;;;;;;11.05;61.03;99790.56;5012613;28;19929;-79
2023/05/19 00:34:11;;;;;;;;;;;;;;;11.05;61.00;99787.88;5006992;28;19983;-79
2023/05/19 00:36:36;;;;;;;;;;;;;;;11.01;60.63;99786.69;5013823;28;19926;-79
2023/05/19 00:39:02;;;;;;;;;;;;;;;10.96;61.20;99789.25;5004304;28;19925;-79
2023/05/19 00:41:27;;;;;;;;;;;;;;;10.96;61.26;99783.91;5008068;28;19925;-79
2023/05/19 00:43:52;;;;;;;;;;;;;;;10.95;61.20;99783.09;5021129;28;19928;-79
2023/05/19 00:46:18;;;;;;;;;;;;;;;10.93;60.81;99779.00;5019141;28;20353;-79
2023/05/19 00:48:44;;;;;;;;;;;;;;;10.89;61.22;99775.16;5003893;28;19921;-80
2023/05/19 00:51:13;;;;;;;;;;;;;;;10.90;61.54;99777.59;5006736;28;19921;-79
2023/05/19 00:53:38;;;;;;;;;;;;;;;10.82;61.27;99777.09;5004268;28;19925;-79
2023/05/19 00:56:04;;;;;;;;;;;;;;;10.83;61.07;99773.41;5003180;28;20385;-79
2023/05/19 00:58:29;;;;;;;;;;;;;;;10.82;61.77;99771.75;5004970;28;19925;-79
2023/05/19 01:01:01;;;;;;;;;;;;;;;10.84;61.43;99773.16;5003484;28;19947;-79
2023/05/19 01:03:29;;;;;;;;;;;;;;;10.86;61.27;99772.94;5013336;28;20502;-80
2023/05/19 01:05:55;;;;;;;;;;;;;;;10.75;61.03;99763.84;5021633;28;19944;-79
2023/05/19 01:08:20;;;;;;;;;;;;;;;10.75;61.39;99765.69;5017467;28;19917;-79
2023/05/19 01:10:45;;;;;;;;;;;;;;;10.78;61.24;99763.41;5019077;28;20366;-80
2023/05/19 01:13:11;;;;;;;;;;;;;;;10.78;61.10;99765.25;5002893;28;19917;-80
2023/05/19 01:15:52;;;;;;;;;;;;;;;10.82;61.20;99761.09;5001933;28;20381;-80
2023/05/19 01:18:23;;;;;;;;;;;;;;;10.65;61.12;99760.09;5004151;28;19921;-80
2023/05/19 01:20:57;;;;;;;;;;;;;;;10.64;61.70;99761.94;5004128;28;19921;-80
2023/05/19 01:23:50;;;;;;;;;;;;;;;10.61;61.38;99765.09;5004346;28;19940;-80
2023/05/19 01:26:34;;;;;;;;;;;;;;;10.54;61.83;99770.50;4998430;28;19929;-79
2023/05/19 01:29:24;;;;;;;;;;;;;;;10.51;61.63;99762.94;5021980;28;19945;-80
2023/05/19 01:31:51;;;;;;;;;;;;;;;10.52;61.27;99766.44;5003979;28;20016;-79
2023/05/19 01:34:17;;;;;;;;;;;;;;;10.50;61.46;99764.00;5004695;28;19921;-79
2023/05/19 01:36:43;;;;;;;;;;;;;;;10.48;61.45;99760.72;5004264;28;19925;-79
2023/05/19 01:39:09;;;;;;;;;;;;;;;10.39;62.49;99763.94;5000306;28;19972;-80
2023/05/19 01:41:35;;;;;;;;;;;;;;;10.34;61.92;99764.59;5019380;28;19929;-79
2023/05/19 01:44:01;;;;;;;;;;;;;;;10.33;62.38;99760.28;5003842;28;19921;-79
2023/05/19 01:46:26;;;;;;;;;;;;;;;10.35;62.32;99763.56;5006492;28;19930;-79
2023/05/19 01:48:52;;;;;;;;;;;;;;;10.38;62.08;99760.44;5001290;28;19932;-80
2023/05/19 01:51:17;;;;;;;;;;;;;;;10.28;62.32;99756.69;5006263;28;19979;-80
2023/05/19 01:53:42;;;;;;;;;;;;;;;10.17;62.44;99758.25;5018390;28;20325;-79
2023/05/19 01:56:08;;;;;;;;;;;;;;;10.31;62.17;99762.38;5004004;28;20293;-80
2023/05/19 01:58:36;;;;;;;;;;;;;;;10.26;62.60;99759.59;5002975;28;19968;-79
2023/05/19 02:01:01;;;;;;;;;;;;;;;10.28;61.78;99762.84;5005543;28;20397;-80
2023/05/19 02:03:45;;;;;;;;;;;;;;;10.18;61.94;99759.88;5018967;28;19960;-79
2023/05/19 02:06:34;;;;;;;;;;;;;;;10.19;62.31;99763.34;5005994;28;19922;-79
2023/05/19 02:09:00;;;;;;;;;;;;;;;10.25;62.08;99760.59;5001058;28;20313;-79
2023/05/19 02:11:32;;;;;;;;;;;;;;;10.20;61.76;99762.34;5024044;28;19921;-79
2023/05/19 02:13:59;;;;;;;;;;;;;;;10.23;62.13;99760.03;4995802;28;20332;-80
2023/05/19 02:16:26;;;;;;;;;;;;;;;10.23;62.34;99767.19;5000086;28;19960;-79
2023/05/19 02:18:52;;;;;;;;;;;;;;;10.14;62.03;99764.03;5015892;28;19924;-79
2023/05/19 02:21:18;;;;;;;;;;;;;;;10.12;62.18;99759.94;5000478;28;19918;-80
2023/05/19 02:23:43;;;;;;;;;;;;;;;10.17;61.85;99760.09;5002725;28;19980;-79
2023/05/19 02:26:08;;;;;;;;;;;;;;;10.09;62.75;99763.84;5006096;28;19925;-79
2023/05/19 02:28:35;;;;;;;;;;;;;;;10.10;61.89;99756.66;5008017;28;19929;-79
2023/05/19 02:31:00;;;;;;;;;;;;;;;10.08;61.91;99759.56;5001609;28;19929;-79
2023/05/19 02:33:26;;;;;;;;;;;;;;;10.06;62.17;99758.13;5020050;28;19917;-80
2023/05/19 02:35:51;;;;;;;;;;;;;;;10.00;63.15;99761.72;5021521;28;20374;-80
2023/05/19 02:38:17;;;;;;;;;;;;;;;10.07;62.18;99763.25;5023602;28;19922;-80
2023/05/19 02:40:42;;;;;;;;;;;;;;;10.09;62.64;99761.16;5011346;28;20452;-79
2023/05/19 02:43:07;;;;;;;;;;;;;;;10.03;62.88;99755.91;5009722;28;19926;-79
2023/05/19 02:45:32;;;;;;;;;;;;;;;10.03;63.14;99756.72;5022649;28;20309;-79
2023/05/19 02:47:58;;;;;;;;;;;;;;;10.13;62.57;99754.41;5008453;28;20301;-80
2023/05/19 02:50:23;;;;;;;;;;;;;;;10.08;62.29;99743.56;5005460;28;19929;-79
2023/05/19 02:52:48;;;;;;;;;;;;;;;10.14;62.99;99747.19;5004852;28;19925;-79
2023/05/19 02:55:15;;;;;;;;;;;;;;;10.11;62.92;99745.00;5002151;28;19933;-80
2023/05/19 02:57:42;;;;;;;;;;;;;;;10.07;62.55;99744.56;5003407;28;19929;-79
2023/05/19 03:00:07;;;;;;;;;;;;;;;10.02;62.66;99749.78;4998422;28;19925;-80
2023/05/19 03:02:34;;;;;;;;;;;;;;;9.92;63.61;99738.81;5015813;28;19947;-79
2023/05/19 03:05:00;;;;;;;;;;;;;;;9.89;63.14;99743.78;5002331;28;20496;-79
2023/05/19 03:07:25;;;;;;;;;;;;;;;10.21;62.60;99745.28;5002067;28;20362;-79
2023/05/19 03:09:51;;;;;;;;;;;;;;;10.19;62.43;99745.50;4998478;28;19928;-79
2023/05/19 03:12:16;;;;;;;;;;;;;;;10.23;62.87;99743.19;5000672;28;20009;-79
2023/05/19 03:14:42;;;;;;;;;;;;;;;10.26;62.21;99738.25;4999629;28;20016;-80
2023/05/19 03:17:08;;;;;;;;;;;;;;;10.23;63.04;99741.34;5017786;28;19926;-79
2023/05/19 03:19:34;;;;;;;;;;;;;;;10.13;62.72;99735.72;5005758;28;19932;-80
2023/05/19 03:21:59;;;;;;;;;;;;;;;10.08;62.99;99743.56;5005728;28;20381;-79
2023/05/19 03:24:24;;;;;;;;;;;;;;;9.89;63.21;99741.94;5007467;28;19931;-80
2023/05/19 03:26:50;;;;;;;;;;;;;;;10.10;63.52;99743.31;5006801;28;19930;-80
2023/05/19 03:29:15;;;;;;;;;;;;;;;10.17;62.39;99739.59;5006803;28;20439;-80
2023/05/19 03:31:41;;;;;;;;;;;;;;;10.05;63.42;99746.66;5000993;28;19929;-79
2023/05/19 03:34:06;;;;;;;;;;;;;;;10.06;63.68;99744.81;5004933;28;20692;-79
2023/05/19 03:36:31;;;;;;;;;;;;;;;10.16;63.16;99753.94;5006211;28;19980;-80
2023/05/19 03:38:57;;;;;;;;;;;;;;;10.24;62.36;99752.84;4997444;28;19976;-79
2023/05/19 03:41:22;;;;;;;;;;;;;;;10.17;63.07;99747.59;5002003;28;20043;-80
2023/05/19 03:43:48;;;;;;;;;;;;;;;10.09;63.94;99755.84;5018262;28;19925;-79
2023/05/19 03:46:13;;;;;;;;;;;;;;;9.46;65.00;99757.09;5005938;28;19926;-79
2023/05/19 03:48:38;;;;;;;;;;;;;;;9.48;65.86;99755.06;5017099;28;19964;-79
2023/05/19 03:51:03;;;;;;;;;;;;;;;9.54;64.80;99756.84;5004906;28;19940;-79
2023/05/19 03:53:29;;;;;;;;;;;;;;;9.28;66.38;99749.91;5008537;28;19922;-80
2023/05/19 03:55:55;;;;;;;;;;;;;;;8.99;67.23;99750.53;5009607;28;19965;-79
2023/05/19 03:58:20;;;;;;;;;;;;;;;9.68;64.18;99753.81;5027911;28;19921;-80
2023/05/19 04:00:45;;;;;;;;;;;;;;;9.98;64.02;99753.13;5008687;28;19917;-80
2023/05/19 04:03:11;;;;;;;;;;;;;;;10.04;64.08;99753.03;5008332;28;20308;-79
2023/05/19 04:05:36;;;;;;;;;;;;;;;10.01;63.81;99758.81;5006660;28;19979;-79
2023/05/19 04:08:01;;;;;;;;;;;;;;;9.95;64.01;99753.53;5008014;28;19967;-80
2023/05/19 04:10:26;;;;;;;;;;;;;;;9.57;65.58;99757.22;5006355;28;19964;-80
2023/05/19 04:12:52;;;;;;;;;;;;;;;9.69;65.40;99751.97;5011044;28;19927;-79
2023/05/19 04:15:17;;;;;;;;;;;;;;;9.58;66.03;99758.03;5009545;28;20016;-79
2023/05/19 04:17:42;;;;;;;;;;;;;;;9.68;65.12;99747.66;5006032;28;19972;-79
2023/05/19 04:20:08;;;;;;;;;;;;;;;9.55;66.31;99747.78;5008758;28;19924;-79
2023/05/19 04:22:34;;;;;;;;;;;;;;;10.04;64.06;99757.56;5006307;28;19925;-79
2023/05/19 04:24:59;;;;;;;;;;;;;;;9.60;65.81;99759.44;5004531;28;19926;-79
2023/05/19 04:27:26;;;;;;;;;;;;;;;9.35;66.41;99753.31;5018686;28;20397;-79
2023/05/19 04:29:51;;;;;;;;;;;;;;;9.66;65.68;99744.41;5021064;28;20458;-79
2023/05/19 04:32:17;;;;;;;;;;;;;;;9.86;64.95;99749.53;5006489;28;19925;-79
2023/05/19 04:34:44;;;;;;;;;;;;;;;9.93;64.80;99744.97;5020240;28;19960;-79
2023/05/19 04:37:13;;;;;;;;;;;;;;;9.85;65.44;99754.06;5004995;28;20344;-79
2023/05/19 04:39:41;;;;;;;;;;;;;;;9.80;65.03;99746.75;5007880;28;19967;-79
2023/05/19 04:42:07;;;;;;;;;;;;;;;9.56;65.72;99749.44;4988201;28;19926;-79
2023/05/19 04:44:33;;;;;;;;;;;;;;;9.56;65.64;99750.25;5001687;28;20294;-80
2023/05/19 04:46:58;;;;;;;;;;;;;;;9.48;66.06;99742.53;5020728;28;19926;-79
2023/05/19 04:49:24;;;;;;;;;;;;;;;8.92;68.72;99752.41;5006859;28;19925;-79
2023/05/19 04:51:51;;;;;;;;;;;;;;;9.14;67.80;99744.88;5022344;28;19964;-80
2023/05/19 04:54:16;;;;;;;;;;;;;;;9.53;66.20;99752.53;5005401;28;20393;-79
2023/05/19 04:56:42;;;;;;;;;;;;;;;9.63;65.66;99750.19;5001617;28;19929;-79
2023/05/19 04:59:08;;;;;;;;;;;;;;;9.35;67.82;99753.31;5022101;28;19948;-79
2023/05/19 05:01:33;;;;;;;;;;;;;;;9.66;65.92;99755.06;5002445;28;20447;-79
2023/05/19 05:04:01;;;;;;;;;;;;;;;9.39;66.39;99753.72;5016536;28;19929;-79
2023/05/19 05:06:27;;;;;;;;;;;;;;;9.12;67.87;99752.28;5005039;28;20024;-79
2023/05/19 05:08:52;;;;;;;;;;;;;;;9.26;68.14;99759.16;5005285;28;20269;-79
2023/05/19 05:11:18;;;;;;;;;;;;;;;8.97;68.84;99764.06;5004082;28;19984;-79
2023/05/19 05:13:43;;;;;;;;;;;;;;;9.26;68.27;99761.81;5019100;28;19921;-79
2023/05/19 05:16:08;;;;;;;;;;;;;;;8.97;70.12;99760.59;5000941;28;19932;-79
2023/05/19 05:18:35;;;;;;;;;;;;;;;8.84;71.27;99758.84;5009180;28;19930;-79
2023/05/19 05:21:00;;;;;;;;;;;;;;;8.79;71.28;99758.66;5002655;28;20372;-79
2023/05/19 05:23:26;;;;;;;;;;;;;;;8.62;72.68;99762.84;5001515;28;19952;-79
2023/05/19 05:25:54;;;;;;;;;;;;;;;8.91;70.70;99751.59;5003527;28;19952;-79
2023/05/19 05:28:20;;;;;;;;;;;;;;;9.06;70.07;99759.31;5003609;28;19917;-80
2023/05/19 05:30:45;;;;;;;;;;;;;;;9.20;70.79;99758.16;5005001;28;19921;-79
2023/05/19 05:33:10;;;;;;;;;;;;;;;8.97;71.53;99760.59;4999483;28;19921;-80
2023/05/19 05:35:35;;;;;;;;;;;;;;;8.64;72.56;99758.13;5017021;28;19960;-79
2023/05/19 05:38:01;;;;;;;;;;;;;;;8.54;72.99;99757.75;5022624;28;19921;-79
2023/05/19 05:40:26;;;;;;;;;;;;;;;8.58;73.20;99759.00;5006639;28;20007;-79
2023/05/19 05:42:54;;;;;;;;;;;;;;;9.17;70.56;99757.78;5003570;28;20059;-79
2023/05/19 05:45:19;;;;;;;;;;;;;;;9.54;69.96;99757.66;5019032;28;19933;-79
2023/05/19 05:47:44;;;;;;;;;;;;;;;9.86;68.55;99760.19;5007782;28;19971;-79
2023/05/19 05:50:11;;;;;;;;;;;;;;;9.94;68.84;99763.38;5002922;28;19953;-79
2023/05/19 05:52:38;;;;;;;;;;;;;;;9.72;69.43;99757.69;5003487;28;19964;-79
2023/05/19 05:55:03;;;;;;;;;;;;;;;9.88;68.94;99752.78;5003909;28;20429;-79
2023/05/19 05:57:34;;;;;;;;;;;;;;;9.76;68.30;99756.19;5009482;28;20013;-79
2023/05/19 05:59:59;;;;;;;;;;;;;;;9.48;68.30;99757.72;5005662;28;19921;-79
2023/05/19 06:02:26;;;;;;;;;;;;;;;9.50;68.75;99761.00;5006240;28;20389;-79
2023/05/19 06:04:59;;;;;;;;;;;;;;;9.93;68.26;99761.78;5019870;28;19929;-79
2023/05/19 06:07:25;;;;;;;;;;;;;;;9.84;68.67;99760.44;5023189;28;19929;-79
2023/05/19 06:09:50;;;;;;;;;;;;;;;9.36;68.78;99762.94;5003976;28;19928;-79
2023/05/19 06:12:16;;;;;;;;;;;;;;;9.59;69.56;99755.13;5005611;28;19953;-79
2023/05/19 06:14:41;;;;;;;;;;;;;;;9.54;69.44;99757.66;5005605;28;19921;-79
2023/05/19 06:17:06;;;;;;;;;;;;;;;9.68;69.48;99753.81;4994313;28;19922;-79
2023/05/19 06:19:31;;;;;;;;;;;;;;;9.72;69.20;99757.69;5017129;28;19922;-79
2023/05/19 06:21:56;;;;;;;;;;;;;;;9.88;69.45;99761.63;5015208;28;20318;-80
2023/05/19 06:24:22;;;;;;;;;;;;;;;10.21;69.19;99758.59;4994108;28;20731;-80
2023/05/19 06:26:47;;;;;;;;;;;;;;;10.16;67.64;99761.94;4999497;28;20562;-79
2023/05/19 06:29:12;;;;;;;;;;;;;;;9.85;68.16;99758.59;5018142;28;19968;-80
2023/05/19 06:31:38;;;;;;;;;;;;;;;9.92;69.19;99768.13;4995554;28;20424;-79
2023/05/19 06:34:03;;;;;;;;;;;;;;;10.28;68.34;99762.84;5000153;28;20004;-79
2023/05/19 06:36:28;;;;;;;;;;;;;;;10.40;68.16;99761.03;5011893;28;20401;-79
2023/05/19 06:38:53;;;;;;;;;;;;;;;10.32;67.84;99757.84;4994123;28;20665;-79
2023/05/19 06:41:22;;;;;;;;;;;;;;;10.09;67.24;99752.38;5010916;28;19956;-79
2023/05/19 06:43:48;;;;;;;;;;;;;;;10.42;68.67;99747.44;4992510;28;20028;-80
2023/05/19 06:46:13;;;;;;;;;;;;;;;10.73;68.37;99751.75;5001093;28;19932;-79
2023/05/19 06:48:38;;;;;;;;;;;;;;;10.70;67.78;99749.56;5000943;28;20361;-79
2023/05/19 06:51:03;;;;;;;;;;;;;;;10.80;67.32;99747.16;5004782;28;19960;-79
2023/05/19 06:53:29;;;;;;;;;;;;;;;11.27;67.07;99746.19;5011954;28;19925;-80
2023/05/19 06:55:54;;;;;;;;;;;;;;;11.45;66.25;99746.09;5010116;28;19995;-79
2023/05/19 06:58:20;;;;;;;;;;;;;;;11.14;65.56;99746.41;5008942;28;20378;-79
2023/05/19 07:00:45;;;;;;;;;;;;;;;11.10;66.83;99748.72;5008642;28;20401;-79
2023/05/19 07:03:10;;;;;;;;;;;;;;;11.25;66.68;99751.78;5009578;28;19921;-79
2023/05/19 07:05:35;;;;;;;;;;;;;;;11.39;67.04;99741.69;5004605;28;19982;-79
2023/05/19 07:08:01;;;;;;;;;;;;;;;11.39;67.53;99746.22;5003145;28;20004;-79
2023/05/19 07:10:26;;;;;;;;;;;;;;;10.99;67.48;99743.34;5003776;28;19918;-79
2023/05/19 07:12:51;;;;;;;;;;;;;;;11.28;67.73;99739.81;5000733;28;19917;-80
2023/05/19 07:15:17;;;;;;;;;;;;;;;11.70;66.54;99744.06;4999975;28;19925;-79
2023/05/19 07:17:42;;;;;;;;;;;;;;;12.01;66.99;99743.66;5010279;28;20024;-79
2023/05/19 07:20:10;;;;;;;;;;;;;;;12.43;65.18;99749.59;5003577;28;19948;-80
2023/05/19 07:22:37;;;;;;;;;;;;;;;11.63;65.07;99745.16;5016642;28;20405;-80
2023/05/19 07:25:02;;;;;;;;;;;;;;;11.58;66.11;99740.53;5003576;28;20385;-80
2023/05/19 07:27:27;;;;;;;;;;;;;;;11.88;67.80;99741.22;5004954;28;19928;-80
2023/05/19 07:29:53;;;;;;;;;;;;;;;12.03;66.36;99740.75;5006492;28;19922;-80
2023/05/19 07:32:18;;;;;;;;;;;;;;;11.74;65.52;99737.19;5004891;28;19983;-79
2023/05/19 07:34:43;;;;;;;;;;;;;;;12.41;64.74;99734.81;5006885;28;19955;-80
2023/05/19 07:37:09;;;;;;;;;;;;;;;11.87;65.92;99736.13;4999907;28;20581;-80
2023/05/19 07:39:34;;;;;;;;;;;;;;;11.82;64.90;99739.50;5005624;28;19928;-79
2023/05/19 07:42:00;;;;;;;;;;;;;;;11.90;64.50;99728.41;4999969;28;19925;-79
2023/05/19 07:44:26;;;;;;;;;;;;;;;12.18;64.43;99724.19;5006267;28;19922;-80
2023/05/19 07:46:51;;;;;;;;;;;;;;;12.34;64.52;99734.16;4994951;28;20493;-80
2023/05/19 07:49:16;;;;;;;;;;;;;;;13.02;63.53;99713.44;4993369;28;19929;-80
2023/05/19 08:44:36;;;;;;;6.95;3.20;;;;;;;13.91;54.98;99633.75;6192816;22;1299130;-82
2023/05/19 08:47:11;;;;;;;6.22;3.33;;;;;;;14.09;56.46;99657.56;6215195;23;20015;-82
2023/05/19 08:49:45;;;;;;;5.38;2.95;;;;;;;14.25;56.26;99665.56;6221463;23;20008;-83
2023/05/19 08:52:29;;;;;;;7.18;2.97;;;;;;;14.10;56.43;99680.66;6248095;23;20073;-83
2023/05/19 08:55:03;;;;;;;6.43;3.58;;;;;;;14.10;55.46;99662.69;6246635;23;20439;-82
2023/05/19 08:57:28;;;;;;;5.45;2.90;;;;;;;14.22;55.75;99666.03;6221883;23;20062;-83
2023/05/19 08:59:55;;;;;;;4.40;3.00;;;;;;;14.43;55.71;99672.50;6221188;23;20016;-82
2023/05/19 09:02:21;;;;;;;4.45;3.13;;;;;;;14.43;52.90;99642.94;6218466;23;20389;-83
2023/05/19 09:04:47;;;;;;;6.90;3.40;;;;;;;14.58;53.37;99624.28;6217192;23;20007;-82
2023/05/19 09:07:27;;;;;;;;;;;;;;;;;;;;;
2023/05/19 09:09:53;;;;;;;4.32;3.38;;;;;;;15.02;52.99;99673.28;6227408;23;20083;-83
2023/05/19 09:12:19;;;;;;;5.88;3.55;;;;;;;14.15;53.61;99627.84;6199666;23;20091;-82
2023/05/19 09:14:45;;;;;;;9.07;3.70;;;;;;;14.48;53.96;99642.97;6217910;23;20405;-83
2023/05/19 09:17:10;;;;;;;4.45;3.00;;;;;;;14.45;54.54;99629.25;6198773;23;20607;-82
2023/05/19 09:19:42;;;;;;;5.90;3.00;;;;;;;14.91;53.79;99626.72;6221054;23;20027;-82
2023/05/19 09:22:07;;;;;;;6.63;3.10;;;;;;;15.11;52.09;99654.81;6221261;23;20000;-83
2023/05/19 09:24:33;;;;;;;8.70;3.67;;;;;;;14.95;52.49;99632.38;6194908;23;20030;-83
2023/05/19 09:26:58;;;;;;;9.93;3.13;;;;;;;14.79;52.40;99601.88;6191756;23;20016;-82
2023/05/19 09:29:24;;;;;;;5.45;3.10;;;;;;;14.92;52.41;99630.19;6170689;23;20223;-82
2023/05/19 09:31:54;;;;;;;8.45;3.17;;;;;;;15.12;54.04;99640.28;6221485;23;20004;-82
2023/05/19 09:34:22;;;;;;;5.22;3.03;;;;;;;14.83;51.48;99648.66;6214334;23;20007;-82
2023/05/19 09:36:53;;;;;;;5.82;3.25;;;;;;;14.78;51.39;99639.75;6217345;23;19999;-83
2023/05/19 09:39:24;;;;;;;4.18;2.80;;;;;;;14.81;52.84;99653.50;6222595;23;20010;-83
2023/05/19 09:41:57;;;;;;;6.60;3.05;;;;;;;14.55;51.74;99597.91;6194423;23;20010;-83
2023/05/19 09:44:27;;;;;;;4.53;2.97;;;;;;;13.91;50.30;99526.41;6185685;23;20019;-82
2023/05/19 09:46:54;;;;;;;3.97;2.78;;;;;;;14.49;51.68;99628.50;6177367;23;20039;-83
2023/05/19 09:49:20;;;;;;;4.70;3.08;;;;;;;14.79;51.50;99655.63;6151091;23;20444;-83
2023/05/19 09:51:48;;;;;;;3.25;2.55;;;;;;;14.66;50.37;99636.41;6181674;23;20460;-83
2023/05/19 09:54:15;;;;;;;6.53;3.00;;;;;;;14.42;50.37;99635.13;6178608;23;20063;-83
2023/05/19 09:56:40;;;;;;;3.55;2.70;;;;;;;14.40;51.25;99624.63;6159831;23;20368;-83
2023/05/19 09:59:07;;;;;;;3.90;2.63;;;;;;;14.00;51.64;99578.56;6182016;23;20004;-84
2023/05/19 10:01:35;;;;;;;6.03;2.30;;;;;;;14.63;52.89;99623.50;6155467;23;20091;-84
2023/05/19 10:04:03;;;;;;;7.32;2.60;;;;;;;14.56;51.39;99614.84;6160760;23;20448;-84
2023/05/19 10:06:29;;;;;;;3.05;2.53;;;;;;;14.65;50.18;99605.25;6205079;23;20007;-84
2023/05/19 10:08:57;;;;;;;4.55;2.80;;;;;;;15.13;51.73;99634.66;6152223;23;20094;-84
2023/05/19 10:11:24;;;;;;;7.05;2.30;;;;;;;15.32;52.52;99635.84;6151951;23;20015;-84
2023/05/19 10:13:52;;;;;;;4.63;3.08;;;;;;;14.72;51.21;99566.34;6181142;23;20352;-84
2023/05/19 10:16:19;;;;;;;5.80;3.17;;;;;;;14.88;52.79;99570.75;6157253;23;20008;-84
2023/05/19 10:18:45;;;;;;;6.72;2.60;;;;;;;15.53;52.23;99621.47;6176734;23;20095;-84
2023/05/19 10:21:13;;;;;;;5.35;2.88;;;;;;;15.44;50.58;99628.41;6159075;23;20013;-83
2023/05/19 10:23:38;;;;;;;5.63;3.00;;;;;;;15.56;50.59;99607.50;6156965;23;20013;-84
2023/05/19 10:26:05;;;;;;;7.68;2.78;;;;;;;15.58;49.74;99618.00;6157543;23;20124;-84
2023/05/19 10:28:36;;;;;;;4.82;2.35;;;;;;;15.59;50.32;99630.41;6179632;23;20013;-84
2023/05/19 10:31:08;;;;;;;2.50;2.10;;;;;;;15.61;50.55;99607.53;6208728;23;20416;-84
2023/05/19 10:34:04;;;;;;;3.88;3.15;;;;;;;15.79;49.81;99625.13;6154929;23;20054;-84
2023/05/19 10:37:01;;;;;;;8.40;2.67;;;;;;;16.27;51.87;99616.63;6184804;23;20439;-84
2023/05/19 10:39:36;;;;;;;3.42;2.42;;;;;;;16.42;49.12;99603.16;6134660;23;20421;-85
2023/05/19 10:42:39;;;;;;;5.53;3.22;;;;;;;16.36;47.02;99612.31;6185678;23;20014;-85
2023/05/19 10:45:18;;;;;;;4.38;2.80;;;;;;;16.14;48.30;99622.50;6062315;23;20016;-84
2023/05/19 10:47:44;;;;;;;6.22;2.58;;;;;;;15.99;49.12;99617.09;6187213;23;20000;-84
2023/05/19 10:50:10;;;;;;;5.35;3.05;;;;;;;16.01;48.52;99622.22;6135850;23;20387;-84
2023/05/19 10:52:37;;;;;;;4.40;2.50;;;;;;;15.72;47.71;99590.34;6160314;23;20008;-84
2023/05/19 10:55:03;;;;;;;4.93;2.80;;;;;;;15.78;48.26;99604.63;6160756;23;20088;-84
2023/05/19 10:57:31;;;;;;;2.90;2.38;;;;;;;15.88;49.00;99583.13;6211215;23;20092;-85
2023/05/19 11:00:06;;;;;;;3.67;2.10;;;;;;;16.78;49.18;99589.75;6179153;23;20161;-85
2023/05/19 11:02:40;;;;;;;4.17;2.60;;;;;;;16.50;48.36;99572.22;6209990;23;20005;-84
2023/05/19 11:05:11;;;;;;;10.85;3.33;;;;;;;16.49;49.53;99601.03;6209458;23;20099;-84
2023/05/19 11:07:41;;;;;;;6.72;3.10;;;;;;;16.49;49.01;99587.56;6186068;23;20016;-84
2023/05/19 11:10:07;;;;;;;3.50;2.40;;;;;;;16.28;49.43;99585.91;6185171;23;20379;-84
2023/05/19 11:12:43;;;;;;;5.20;2.50;;;;;;;16.41;48.64;99588.09;6132212;23;20028;-85
2023/05/19 11:15:15;;;;;;;;;;;;;;;17.08;48.64;99587.03;6210214;23;20227;-84
2023/05/19 11:17:44;;;;;;;2.63;2.42;;;;;;;17.69;47.39;99596.56;6208054;23;19907;-84
2023/05/19 11:20:33;;;;;;;5.55;2.38;;;;;;;16.95;46.89;99593.78;6132054;23;20012;-84
2023/05/19 11:23:17;;;;;;;2.20;1.83;;;;;;;17.51;48.15;99588.28;6179310;23;20340;-84
2023/05/19 11:25:46;;;;;;;3.10;2.25;;;;;;;17.43;48.45;99581.53;6156136;23;20013;-84
2023/05/19 11:28:15;;;;;;;5.30;2.60;;;;;;;16.93;47.59;99557.38;6155351;23;20012;-84
2023/05/19 11:30:42;;;;;;;2.45;2.20;;;;;;;17.27;46.79;99592.66;6158853;23;20095;-85
2023/05/19 11:33:08;;;;;;;5.30;2.20;;;;;;;17.43;46.59;99570.72;6184589;23;20008;-85
2023/05/19 11:35:35;;;;;;;2.45;1.75;;;;;;;17.37;45.98;99555.63;6161492;23;20004;-85
2023/05/19 11:38:02;;;;;;;6.57;2.10;;;;;;;18.39;46.32;99562.16;6212179;23;20059;-85
2023/05/19 11:40:28;;;;;;;4.70;2.20;;;;;;;18.86;46.69;99550.69;6213168;23;20001;-85
2023/05/19 11:42:53;;;;;;;3.85;2.40;;;;;;;18.00;45.23;99545.13;6191596;23;20065;-85
2023/05/19 11:45:26;;;;;;;2.15;1.80;;;;;;;18.47;45.78;99577.81;6214700;23;20032;-85
2023/05/19 11:47:54;;;;;;;3.03;1.83;;;;;;;17.87;42.43;99577.06;6182662;23;20016;-85
2023/05/19 11:50:19;;;;;;;5.15;1.80;;;;;;;18.18;43.27;99556.06;6186778;23;20373;-84
2023/05/19 11:52:46;;;;;;;5.32;2.88;;;;;;;18.20;43.93;99566.59;6206883;23;20365;-84
2023/05/19 11:55:15;;;;;;;4.35;2.17;;;;;;;19.26;45.95;99572.72;6179269;23;20235;-84
2023/05/19 11:57:49;;;;;;;6.05;2.20;;;;;;;18.65;41.96;99560.91;6201254;23;20447;-85
2023/05/19 12:00:15;;;;;;;4.50;2.15;;;;;;;19.29;44.04;99582.19;6205942;23;20035;-85
2023/05/19 12:02:40;;;;;;;4.72;2.22;;;;;;;19.37;43.35;99576.19;6235149;23;20012;-85
2023/05/19 12:05:06;;;;;;;6.35;2.20;;;;;;;19.34;43.16;99576.72;6160284;23;20015;-85
2023/05/19 12:07:31;;;;;;;3.33;1.98;;;;;;;18.82;43.42;99550.47;6212767;23;20004;-85
2023/05/19 12:09:58;;;;;;;7.07;2.03;;;;;;;18.35;43.98;99542.97;6212532;23;20036;-84
2023/05/19 12:12:24;;;;;;;2.10;1.88;;;;;;;18.65;45.62;99566.31;6187654;23;20407;-85
2023/05/19 12:14:50;;;;;;;3.58;2.20;;;;;;;18.83;44.56;99562.09;6212102;23;20012;-85
2023/05/19 12:17:20;;;;;;;4.85;2.33;;;;;;;18.17;45.44;99559.88;6214629;23;20038;-85
2023/05/19 12:19:49;;;;;;;3.25;2.15;;;;;;;18.54;46.58;99567.47;6217313;23;20058;-85
2023/05/19 12:22:16;;;;;;;2.95;2.25;;;;;;;18.14;46.67;99556.91;6211629;23;20008;-85
2023/05/19 12:24:42;;;;;;;4.82;2.13;;;;;;;17.28;47.21;99556.50;6164011;23;20455;-84
2023/05/19 12:27:18;;;;;;;4.97;2.05;;;;;;;17.13;46.54;99568.13;6239154;23;20525;-84
2023/05/19 12:29:50;;;;;;;4.15;2.00;;;;;;;17.52;47.00;99542.13;6239973;23;20011;-83
2023/05/19 12:32:16;;;;;;;4.40;2.47;;;;;;;17.37;45.81;99557.53;6216408;23;20000;-84
2023/05/19 12:34:41;;;;;;;4.80;2.22;;;;;;;17.19;47.00;99553.53;6214073;23;20077;-84
2023/05/19 12:37:09;;;;;;;3.63;2.35;;;;;;;17.39;46.69;99544.56;6212019;23;20517;-84
2023/05/19 12:39:34;;;;;;;4.25;2.47;;;;;;;18.05;45.42;99543.19;6187472;23;20015;-85
2023/05/19 12:42:07;;;;;;;11.90;2.53;;;;;;;18.30;45.79;99567.34;6214402;23;20004;-85
2023/05/19 12:44:46;;;;;;;3.72;2.65;;;;;;;18.03;45.39;99548.06;6157855;23;20020;-84
2023/05/19 12:47:13;;;;;;;9.18;2.05;;;;;;;18.17;47.03;99551.78;6210352;23;20050;-84
2023/05/19 12:49:56;;;;;;;2.40;2.08;;;;;;;18.12;46.45;99567.19;6181701;23;20008;-84
2023/05/19 12:52:22;;;;;;;3.58;2.05;;;;;;;17.62;46.44;99542.09;6182152;23;20027;-85
2023/05/19 12:54:49;;;;;;;2.72;2.15;;;;;;;17.57;46.76;99558.31;6184459;23;20317;-85
2023/05/19 12:57:19;;;;;;;5.80;2.15;;;;;;;17.50;45.61;99538.03;6185283;23;20584;-85
2023/05/19 12:59:45;;;;;;;4.47;2.58;;;;;;;17.39;46.42;99553.47;6161154;23;20396;-85
2023/05/19 13:02:11;;;;;;;7.22;2.30;;;;;;;17.26;46.78;99537.88;6211936;23;20083;-85
2023/05/19 13:04:36;;;;;;;3.05;2.13;;;;;;;17.34;47.19;99558.09;6160078;23;20039;-85
2023/05/19 13:07:02;;;;;;;4.90;2.22;;;;;;;16.92;48.03;99558.47;6185681;23;20001;-84
2023/05/19 13:09:27;;;;;;;8.35;2.75;;;;;;;17.35;47.90;99552.41;6213020;23;20062;-85
2023/05/19 13:11:53;;;;;;;3.65;2.22;;;;;;;17.30;47.53;99560.50;6185589;23;20104;-84
2023/05/19 13:14:19;;;;;;;3.30;2.38;;;;;;;17.33;47.38;99554.59;6184593;23;20377;-84